sensor_id;sensor_type;location;lat;lon;timestamp;temperature;humidity
314;DHT22;143;51.634;7.112;2023-08-08T00:00:38;15.30;1.00
314;DHT22;143;51.634;7.112;2023-08-08T00:03:04;15.30;1.00
314;DHT22;143;51.634;7.112;2023-08-08T00:05:30;15.30;1.00
314;DHT22;143;51.634;7.112;2023-08-08T00:07:55;15.30;1.00
314;DHT22;143;51.634;7.112;2023-08-08T00:10:21;15.30;1.00
314;DHT22;143;51.634;7.112;2023-08-08T00:12:47;15.30;1.00
314;DHT22;143;51.634;7.112;2023-08-08T00:15:13;15.30;1.00
314;DHT22;143;51.634;7.112;2023-08-08T00:17:38;15.30;1.00
314;DHT22;143;51.634;7.112;2023-08-08T00:20:05;15.30;1.00
314;DHT22;143;51.634;7.112;2023-08-08T00:22:30;15.30;1.00
314;DHT22;143;51.634;7.112;2023-08-08T00:24:56;15.30;1.00
314;DHT22;143;51.634;7.112;2023-08-08T00:27:22;15.30;1.00
314;DHT22;143;51.634;7.112;2023-08-08T00:29:48;15.30;1.00
314;DHT22;143;51.634;7.112;2023-08-08T00:32:14;15.30;1.00
314;DHT22;143;51.634;7.112;2023-08-08T00:34:39;15.30;1.00
314;DHT22;143;51.634;7.112;2023-08-08T00:37:05;15.30;1.00
314;DHT22;143;51.634;7.112;2023-08-08T00:39:31;15.30;1.00
314;DHT22;143;51.634;7.112;2023-08-08T00:41:57;15.30;1.00
314;DHT22;143;51.634;7.112;2023-08-08T00:44:22;15.30;1.00
314;DHT22;143;51.634;7.112;2023-08-08T00:46:48;15.30;1.00
314;DHT22;143;51.634;7.112;2023-08-08T00:49:14;15.30;1.00
314;DHT22;143;51.634;7.112;2023-08-08T00:51:40;15.20;1.00
314;DHT22;143;51.634;7.112;2023-08-08T00:54:06;15.20;1.00
314;DHT22;143;51.634;7.112;2023-08-08T00:56:33;15.20;1.00
314;DHT22;143;51.634;7.112;2023-08-08T00:58:58;15.20;1.00
314;DHT22;143;51.634;7.112;2023-08-08T01:01:24;15.20;1.00
314;DHT22;143;51.634;7.112;2023-08-08T01:03:50;15.20;1.00
314;DHT22;143;51.634;7.112;2023-08-08T01:09:23;15.20;1.00
314;DHT22;143;51.634;7.112;2023-08-08T01:11:50;15.20;1.00
314;DHT22;143;51.634;7.112;2023-08-08T01:14:17;15.20;1.00
314;DHT22;143;51.634;7.112;2023-08-08T01:16:44;15.20;1.00
314;DHT22;143;51.634;7.112;2023-08-08T01:19:14;15.20;1.00
314;DHT22;143;51.634;7.112;2023-08-08T01:21:43;15.20;1.00
314;DHT22;143;51.634;7.112;2023-08-08T01:24:36;15.20;1.00
314;DHT22;143;51.634;7.112;2023-08-08T01:27:04;15.20;1.00
314;DHT22;143;51.634;7.112;2023-08-08T01:29:31;15.20;1.00
314;DHT22;143;51.634;7.112;2023-08-08T01:31:57;15.20;1.00
314;DHT22;143;51.634;7.112;2023-08-08T01:34:22;15.20;1.00
314;DHT22;143;51.634;7.112;2023-08-08T01:36:53;15.20;1.00
314;DHT22;143;51.634;7.112;2023-08-08T01:39:25;15.20;1.00
314;DHT22;143;51.634;7.112;2023-08-08T01:41:53;15.20;1.00
314;DHT22;143;51.634;7.112;2023-08-08T01:44:20;15.20;1.00
314;DHT22;143;51.634;7.112;2023-08-08T01:46:47;15.20;1.00
314;DHT22;143;51.634;7.112;2023-08-08T01:49:12;15.20;1.00
314;DHT22;143;51.634;7.112;2023-08-08T01:51:38;15.20;1.00
314;DHT22;143;51.634;7.112;2023-08-08T01:54:04;15.20;1.00
314;DHT22;143;51.634;7.112;2023-08-08T01:56:30;15.10;1.00
314;DHT22;143;51.634;7.112;2023-08-08T01:58:55;15.10;1.00
314;DHT22;143;51.634;7.112;2023-08-08T02:01:21;15.10;1.00
314;DHT22;143;51.634;7.112;2023-08-08T02:03:47;15.10;1.00
314;DHT22;143;51.634;7.112;2023-08-08T02:06:13;15.10;1.00
314;DHT22;143;51.634;7.112;2023-08-08T02:08:38;15.10;1.00
314;DHT22;143;51.634;7.112;2023-08-08T02:11:04;15.10;1.00
314;DHT22;143;51.634;7.112;2023-08-08T02:13:30;15.20;1.00
314;DHT22;143;51.634;7.112;2023-08-08T02:15:56;15.20;1.00
314;DHT22;143;51.634;7.112;2023-08-08T02:18:21;15.30;1.00
314;DHT22;143;51.634;7.112;2023-08-08T02:20:47;15.30;1.00
314;DHT22;143;51.634;7.112;2023-08-08T02:23:13;15.30;1.00
314;DHT22;143;51.634;7.112;2023-08-08T02:25:39;15.30;1.00
314;DHT22;143;51.634;7.112;2023-08-08T02:28:04;15.30;1.00
314;DHT22;143;51.634;7.112;2023-08-08T02:30:30;15.20;1.00
314;DHT22;143;51.634;7.112;2023-08-08T02:32:56;15.20;1.00
314;DHT22;143;51.634;7.112;2023-08-08T02:35:22;15.20;1.00
314;DHT22;143;51.634;7.112;2023-08-08T02:37:48;15.20;1.00
314;DHT22;143;51.634;7.112;2023-08-08T02:40:13;15.20;1.00
314;DHT22;143;51.634;7.112;2023-08-08T02:42:39;15.20;1.00
314;DHT22;143;51.634;7.112;2023-08-08T02:45:05;15.20;1.00
314;DHT22;143;51.634;7.112;2023-08-08T02:47:31;15.20;1.00
314;DHT22;143;51.634;7.112;2023-08-08T02:49:57;15.20;1.00
314;DHT22;143;51.634;7.112;2023-08-08T02:52:23;15.10;1.00
314;DHT22;143;51.634;7.112;2023-08-08T02:54:48;15.10;1.00
314;DHT22;143;51.634;7.112;2023-08-08T02:57:14;15.10;1.00
314;DHT22;143;51.634;7.112;2023-08-08T02:59:40;15.10;1.00
314;DHT22;143;51.634;7.112;2023-08-08T03:02:06;15.10;1.00
314;DHT22;143;51.634;7.112;2023-08-08T03:04:31;15.00;1.00
314;DHT22;143;51.634;7.112;2023-08-08T03:06:57;15.00;1.00
314;DHT22;143;51.634;7.112;2023-08-08T03:09:23;15.00;1.00
314;DHT22;143;51.634;7.112;2023-08-08T03:11:48;15.10;1.00
314;DHT22;143;51.634;7.112;2023-08-08T03:14:14;15.00;1.00
314;DHT22;143;51.634;7.112;2023-08-08T03:16:40;15.00;1.00
314;DHT22;143;51.634;7.112;2023-08-08T03:19:06;15.00;1.00
314;DHT22;143;51.634;7.112;2023-08-08T03:21:31;15.00;1.00
314;DHT22;143;51.634;7.112;2023-08-08T03:23:57;15.00;1.00
314;DHT22;143;51.634;7.112;2023-08-08T03:26:23;14.90;1.00
314;DHT22;143;51.634;7.112;2023-08-08T03:28:49;14.80;1.00
314;DHT22;143;51.634;7.112;2023-08-08T03:31:16;14.80;1.00
314;DHT22;143;51.634;7.112;2023-08-08T03:33:43;14.70;1.00
314;DHT22;143;51.634;7.112;2023-08-08T03:36:09;14.70;1.00
314;DHT22;143;51.634;7.112;2023-08-08T03:38:35;14.70;1.00
314;DHT22;143;51.634;7.112;2023-08-08T03:41:01;14.60;1.00
314;DHT22;143;51.634;7.112;2023-08-08T03:43:26;14.60;1.00
314;DHT22;143;51.634;7.112;2023-08-08T03:45:52;14.60;1.00
314;DHT22;143;51.634;7.112;2023-08-08T03:48:18;14.50;1.00
314;DHT22;143;51.634;7.112;2023-08-08T03:50:43;14.50;1.00
314;DHT22;143;51.634;7.112;2023-08-08T03:53:09;14.50;1.00
314;DHT22;143;51.634;7.112;2023-08-08T03:55:35;14.50;1.00
314;DHT22;143;51.634;7.112;2023-08-08T03:58:00;14.50;1.00
314;DHT22;143;51.634;7.112;2023-08-08T04:00:26;14.60;1.00
314;DHT22;143;51.634;7.112;2023-08-08T04:02:52;14.60;1.00
314;DHT22;143;51.634;7.112;2023-08-08T04:05:17;14.60;1.00
314;DHT22;143;51.634;7.112;2023-08-08T04:07:43;14.50;1.00
314;DHT22;143;51.634;7.112;2023-08-08T04:10:09;14.50;1.00
314;DHT22;143;51.634;7.112;2023-08-08T04:12:35;14.50;1.00
314;DHT22;143;51.634;7.112;2023-08-08T04:15:01;14.40;1.00
314;DHT22;143;51.634;7.112;2023-08-08T04:17:26;14.30;1.00
314;DHT22;143;51.634;7.112;2023-08-08T04:19:52;14.40;1.00
314;DHT22;143;51.634;7.112;2023-08-08T04:22:18;14.30;1.00
314;DHT22;143;51.634;7.112;2023-08-08T04:24:44;14.40;1.00
314;DHT22;143;51.634;7.112;2023-08-08T04:27:09;14.30;1.00
314;DHT22;143;51.634;7.112;2023-08-08T04:29:36;14.30;1.00
314;DHT22;143;51.634;7.112;2023-08-08T04:32:02;14.30;1.00
314;DHT22;143;51.634;7.112;2023-08-08T04:34:27;14.30;1.00
314;DHT22;143;51.634;7.112;2023-08-08T04:36:53;14.30;1.00
314;DHT22;143;51.634;7.112;2023-08-08T04:39:18;14.30;1.00
314;DHT22;143;51.634;7.112;2023-08-08T04:41:44;14.30;1.00
314;DHT22;143;51.634;7.112;2023-08-08T04:44:10;14.30;1.00
314;DHT22;143;51.634;7.112;2023-08-08T04:46:36;14.30;1.00
314;DHT22;143;51.634;7.112;2023-08-08T04:49:01;14.30;1.00
314;DHT22;143;51.634;7.112;2023-08-08T04:51:27;14.30;1.00
314;DHT22;143;51.634;7.112;2023-08-08T04:53:52;14.30;1.00
314;DHT22;143;51.634;7.112;2023-08-08T04:56:18;14.30;1.00
314;DHT22;143;51.634;7.112;2023-08-08T04:58:44;14.30;1.00
314;DHT22;143;51.634;7.112;2023-08-08T05:01:10;14.20;1.00
314;DHT22;143;51.634;7.112;2023-08-08T05:03:39;14.20;1.00
314;DHT22;143;51.634;7.112;2023-08-08T05:06:05;14.10;1.00
314;DHT22;143;51.634;7.112;2023-08-08T05:08:31;14.10;1.00
314;DHT22;143;51.634;7.112;2023-08-08T05:10:56;14.10;1.00
314;DHT22;143;51.634;7.112;2023-08-08T05:13:22;14.10;1.00
314;DHT22;143;51.634;7.112;2023-08-08T05:15:48;14.10;1.00
314;DHT22;143;51.634;7.112;2023-08-08T05:18:13;14.10;1.00
314;DHT22;143;51.634;7.112;2023-08-08T05:20:39;14.10;1.00
314;DHT22;143;51.634;7.112;2023-08-08T05:23:05;14.10;1.00
314;DHT22;143;51.634;7.112;2023-08-08T05:25:31;14.10;1.00
314;DHT22;143;51.634;7.112;2023-08-08T05:27:56;14.10;1.00
314;DHT22;143;51.634;7.112;2023-08-08T05:30:25;14.20;1.00
314;DHT22;143;51.634;7.112;2023-08-08T05:32:54;14.20;1.00
314;DHT22;143;51.634;7.112;2023-08-08T05:35:22;14.20;1.00
314;DHT22;143;51.634;7.112;2023-08-08T05:37:49;14.30;1.00
314;DHT22;143;51.634;7.112;2023-08-08T05:40:16;14.30;1.00
314;DHT22;143;51.634;7.112;2023-08-08T05:42:43;14.20;1.00
314;DHT22;143;51.634;7.112;2023-08-08T05:45:09;14.20;1.00
314;DHT22;143;51.634;7.112;2023-08-08T05:47:34;14.30;1.00
314;DHT22;143;51.634;7.112;2023-08-08T05:50:00;14.30;1.00
314;DHT22;143;51.634;7.112;2023-08-08T05:52:26;14.30;1.00
314;DHT22;143;51.634;7.112;2023-08-08T05:54:52;14.30;1.00
314;DHT22;143;51.634;7.112;2023-08-08T05:57:17;14.40;1.00
314;DHT22;143;51.634;7.112;2023-08-08T05:59:43;14.30;1.00
314;DHT22;143;51.634;7.112;2023-08-08T06:02:10;14.40;1.00
314;DHT22;143;51.634;7.112;2023-08-08T06:04:36;14.40;1.00
314;DHT22;143;51.634;7.112;2023-08-08T06:07:02;14.40;1.00
314;DHT22;143;51.634;7.112;2023-08-08T06:09:29;14.40;1.00
314;DHT22;143;51.634;7.112;2023-08-08T06:11:57;14.40;1.00
314;DHT22;143;51.634;7.112;2023-08-08T06:14:22;14.40;1.00
314;DHT22;143;51.634;7.112;2023-08-08T06:16:49;14.40;1.00
314;DHT22;143;51.634;7.112;2023-08-08T06:19:16;14.40;1.00
314;DHT22;143;51.634;7.112;2023-08-08T06:21:42;14.40;1.00
314;DHT22;143;51.634;7.112;2023-08-08T06:24:08;14.50;1.00
314;DHT22;143;51.634;7.112;2023-08-08T06:26:34;14.50;1.00
314;DHT22;143;51.634;7.112;2023-08-08T06:29:00;14.50;1.00
314;DHT22;143;51.634;7.112;2023-08-08T06:31:25;14.50;1.00
314;DHT22;143;51.634;7.112;2023-08-08T06:33:51;14.50;1.00
314;DHT22;143;51.634;7.112;2023-08-08T06:36:17;14.50;1.00
314;DHT22;143;51.634;7.112;2023-08-08T06:38:42;14.50;1.00
314;DHT22;143;51.634;7.112;2023-08-08T06:41:08;14.50;1.00
314;DHT22;143;51.634;7.112;2023-08-08T06:43:34;14.50;1.00
314;DHT22;143;51.634;7.112;2023-08-08T06:45:59;14.60;1.00
314;DHT22;143;51.634;7.112;2023-08-08T06:48:26;14.60;1.00
314;DHT22;143;51.634;7.112;2023-08-08T06:50:52;14.60;1.00
314;DHT22;143;51.634;7.112;2023-08-08T06:53:18;14.60;1.00
314;DHT22;143;51.634;7.112;2023-08-08T06:55:44;14.70;1.00
314;DHT22;143;51.634;7.112;2023-08-08T06:58:09;14.70;1.00
314;DHT22;143;51.634;7.112;2023-08-08T07:00:35;14.70;1.00
314;DHT22;143;51.634;7.112;2023-08-08T07:03:03;14.70;1.00
314;DHT22;143;51.634;7.112;2023-08-08T07:05:32;14.70;1.00
314;DHT22;143;51.634;7.112;2023-08-08T07:07:59;14.70;1.00
314;DHT22;143;51.634;7.112;2023-08-08T07:10:24;14.70;1.00
314;DHT22;143;51.634;7.112;2023-08-08T07:12:50;14.70;1.00
314;DHT22;143;51.634;7.112;2023-08-08T07:15:16;14.80;1.00
314;DHT22;143;51.634;7.112;2023-08-08T07:17:43;14.80;1.00
314;DHT22;143;51.634;7.112;2023-08-08T07:20:10;14.90;1.00
314;DHT22;143;51.634;7.112;2023-08-08T07:22:39;14.90;1.00
314;DHT22;143;51.634;7.112;2023-08-08T07:25:05;15.00;1.00
314;DHT22;143;51.634;7.112;2023-08-08T07:27:31;15.10;1.00
314;DHT22;143;51.634;7.112;2023-08-08T07:29:57;15.10;1.00
314;DHT22;143;51.634;7.112;2023-08-08T07:32:22;15.20;1.00
314;DHT22;143;51.634;7.112;2023-08-08T07:34:48;15.30;1.00
314;DHT22;143;51.634;7.112;2023-08-08T07:37:14;15.40;1.00
314;DHT22;143;51.634;7.112;2023-08-08T07:39:40;15.50;1.00
314;DHT22;143;51.634;7.112;2023-08-08T07:42:06;15.60;1.00
314;DHT22;143;51.634;7.112;2023-08-08T07:44:32;15.60;1.00
314;DHT22;143;51.634;7.112;2023-08-08T07:47:00;15.70;1.00
314;DHT22;143;51.634;7.112;2023-08-08T07:49:25;15.70;1.00
314;DHT22;143;51.634;7.112;2023-08-08T07:51:51;15.80;1.00
314;DHT22;143;51.634;7.112;2023-08-08T07:54:17;15.90;1.00
314;DHT22;143;51.634;7.112;2023-08-08T07:56:43;15.90;1.00
314;DHT22;143;51.634;7.112;2023-08-08T07:59:08;16.00;1.00
314;DHT22;143;51.634;7.112;2023-08-08T08:01:35;16.20;1.00
314;DHT22;143;51.634;7.112;2023-08-08T08:04:01;16.30;1.00
314;DHT22;143;51.634;7.112;2023-08-08T08:06:28;16.30;1.00
314;DHT22;143;51.634;7.112;2023-08-08T08:08:53;16.50;1.00
314;DHT22;143;51.634;7.112;2023-08-08T08:11:19;16.50;1.00
314;DHT22;143;51.634;7.112;2023-08-08T08:13:45;16.60;1.00
314;DHT22;143;51.634;7.112;2023-08-08T08:16:10;16.60;1.00
314;DHT22;143;51.634;7.112;2023-08-08T08:18:36;16.60;1.00
314;DHT22;143;51.634;7.112;2023-08-08T08:21:02;16.60;1.00
314;DHT22;143;51.634;7.112;2023-08-08T08:23:27;16.70;1.00
314;DHT22;143;51.634;7.112;2023-08-08T08:25:53;16.70;1.00
314;DHT22;143;51.634;7.112;2023-08-08T08:28:19;16.60;1.00
314;DHT22;143;51.634;7.112;2023-08-08T08:30:44;16.60;1.00
314;DHT22;143;51.634;7.112;2023-08-08T08:33:10;16.60;1.00
314;DHT22;143;51.634;7.112;2023-08-08T08:35:36;16.60;1.00
314;DHT22;143;51.634;7.112;2023-08-08T08:38:03;16.70;1.00
314;DHT22;143;51.634;7.112;2023-08-08T08:40:30;16.70;1.00
314;DHT22;143;51.634;7.112;2023-08-08T08:42:59;16.80;1.00
314;DHT22;143;51.634;7.112;2023-08-08T08:45:26;16.90;1.00
314;DHT22;143;51.634;7.112;2023-08-08T08:47:56;17.00;1.00
314;DHT22;143;51.634;7.112;2023-08-08T08:50:23;17.00;1.00
314;DHT22;143;51.634;7.112;2023-08-08T08:52:53;17.10;1.00
314;DHT22;143;51.634;7.112;2023-08-08T08:55:21;17.10;1.00
314;DHT22;143;51.634;7.112;2023-08-08T08:57:48;17.10;1.00
314;DHT22;143;51.634;7.112;2023-08-08T09:00:14;17.20;1.00
314;DHT22;143;51.634;7.112;2023-08-08T09:02:41;17.20;1.00
314;DHT22;143;51.634;7.112;2023-08-08T09:05:07;17.30;1.00
314;DHT22;143;51.634;7.112;2023-08-08T09:07:35;17.30;1.00
314;DHT22;143;51.634;7.112;2023-08-08T09:10:02;17.30;1.00
314;DHT22;143;51.634;7.112;2023-08-08T09:12:29;17.40;99.90
314;DHT22;143;51.634;7.112;2023-08-08T09:14:57;17.40;99.90
314;DHT22;143;51.634;7.112;2023-08-08T09:17:27;17.40;99.90
314;DHT22;143;51.634;7.112;2023-08-08T09:19:54;17.50;99.90
314;DHT22;143;51.634;7.112;2023-08-08T09:22:26;17.40;99.90
314;DHT22;143;51.634;7.112;2023-08-08T09:24:53;17.30;99.90
314;DHT22;143;51.634;7.112;2023-08-08T09:27:18;17.30;99.90
314;DHT22;143;51.634;7.112;2023-08-08T09:29:44;17.30;99.90
314;DHT22;143;51.634;7.112;2023-08-08T09:32:10;17.20;99.90
314;DHT22;143;51.634;7.112;2023-08-08T09:34:41;17.30;99.90
314;DHT22;143;51.634;7.112;2023-08-08T09:37:07;17.30;99.90
314;DHT22;143;51.634;7.112;2023-08-08T09:39:33;17.30;99.90
314;DHT22;143;51.634;7.112;2023-08-08T09:42:03;17.40;99.90
314;DHT22;143;51.634;7.112;2023-08-08T09:44:32;17.40;99.90
314;DHT22;143;51.634;7.112;2023-08-08T09:47:00;17.50;99.90
314;DHT22;143;51.634;7.112;2023-08-08T09:49:27;17.50;99.90
314;DHT22;143;51.634;7.112;2023-08-08T09:51:54;17.50;99.90
314;DHT22;143;51.634;7.112;2023-08-08T09:54:20;17.50;99.90
314;DHT22;143;51.634;7.112;2023-08-08T09:56:48;17.60;99.90
314;DHT22;143;51.634;7.112;2023-08-08T09:59:14;17.60;99.90
314;DHT22;143;51.634;7.112;2023-08-08T10:01:43;17.60;99.90
314;DHT22;143;51.634;7.112;2023-08-08T10:04:11;17.60;99.90
314;DHT22;143;51.634;7.112;2023-08-08T10:06:37;17.60;99.90
314;DHT22;143;51.634;7.112;2023-08-08T10:09:03;17.60;99.90
314;DHT22;143;51.634;7.112;2023-08-08T10:11:30;17.70;99.90
314;DHT22;143;51.634;7.112;2023-08-08T10:13:58;17.80;99.90
314;DHT22;143;51.634;7.112;2023-08-08T10:16:26;17.70;99.90
314;DHT22;143;51.634;7.112;2023-08-08T10:19:00;17.70;99.90
314;DHT22;143;51.634;7.112;2023-08-08T10:21:27;17.70;99.90
314;DHT22;143;51.634;7.112;2023-08-08T10:24:05;17.70;99.90
314;DHT22;143;51.634;7.112;2023-08-08T10:26:32;17.70;99.90
314;DHT22;143;51.634;7.112;2023-08-08T10:29:00;17.70;99.90
314;DHT22;143;51.634;7.112;2023-08-08T10:31:26;17.70;99.90
314;DHT22;143;51.634;7.112;2023-08-08T10:34:05;17.70;99.90
314;DHT22;143;51.634;7.112;2023-08-08T10:36:51;17.80;99.90
314;DHT22;143;51.634;7.112;2023-08-08T10:39:21;17.90;99.90
314;DHT22;143;51.634;7.112;2023-08-08T10:41:50;17.90;99.90
314;DHT22;143;51.634;7.112;2023-08-08T10:44:23;18.00;99.90
314;DHT22;143;51.634;7.112;2023-08-08T10:46:51;18.00;99.90
314;DHT22;143;51.634;7.112;2023-08-08T10:49:18;17.90;99.90
314;DHT22;143;51.634;7.112;2023-08-08T10:51:45;17.90;99.90
314;DHT22;143;51.634;7.112;2023-08-08T10:54:14;17.80;99.90
314;DHT22;143;51.634;7.112;2023-08-08T10:56:40;17.80;99.90
314;DHT22;143;51.634;7.112;2023-08-08T10:59:20;17.70;99.90
314;DHT22;143;51.634;7.112;2023-08-08T11:01:47;17.70;99.90
314;DHT22;143;51.634;7.112;2023-08-08T11:04:15;17.70;99.90
314;DHT22;143;51.634;7.112;2023-08-08T11:06:41;17.80;99.90
314;DHT22;143;51.634;7.112;2023-08-08T11:09:07;17.90;99.90
314;DHT22;143;51.634;7.112;2023-08-08T11:11:40;18.00;99.90
314;DHT22;143;51.634;7.112;2023-08-08T11:14:14;18.20;99.90
314;DHT22;143;51.634;7.112;2023-08-08T11:16:40;18.30;99.90
314;DHT22;143;51.634;7.112;2023-08-08T11:19:07;18.50;99.90
314;DHT22;143;51.634;7.112;2023-08-08T11:21:34;18.60;99.90
314;DHT22;143;51.634;7.112;2023-08-08T11:24:02;18.70;99.90
314;DHT22;143;51.634;7.112;2023-08-08T11:26:28;18.90;99.90
314;DHT22;143;51.634;7.112;2023-08-08T11:28:58;18.90;99.90
314;DHT22;143;51.634;7.112;2023-08-08T11:31:24;18.80;99.90
314;DHT22;143;51.634;7.112;2023-08-08T11:33:50;18.60;99.90
314;DHT22;143;51.634;7.112;2023-08-08T11:36:18;18.50;99.90
314;DHT22;143;51.634;7.112;2023-08-08T11:38:44;18.30;99.90
314;DHT22;143;51.634;7.112;2023-08-08T11:41:11;18.30;99.90
314;DHT22;143;51.634;7.112;2023-08-08T11:43:41;18.30;99.90
314;DHT22;143;51.634;7.112;2023-08-08T11:46:14;18.30;99.90
314;DHT22;143;51.634;7.112;2023-08-08T11:48:41;18.30;99.90
314;DHT22;143;51.634;7.112;2023-08-08T11:51:08;18.30;99.90
314;DHT22;143;51.634;7.112;2023-08-08T11:53:34;18.30;99.90
314;DHT22;143;51.634;7.112;2023-08-08T11:56:01;18.30;99.90
314;DHT22;143;51.634;7.112;2023-08-08T11:58:29;18.30;99.90
314;DHT22;143;51.634;7.112;2023-08-08T12:00:56;18.40;99.90
314;DHT22;143;51.634;7.112;2023-08-08T12:03:24;18.60;99.90
314;DHT22;143;51.634;7.112;2023-08-08T12:05:51;18.80;99.90
314;DHT22;143;51.634;7.112;2023-08-08T12:08:20;18.90;99.90
314;DHT22;143;51.634;7.112;2023-08-08T12:10:49;19.10;99.90
314;DHT22;143;51.634;7.112;2023-08-08T12:13:23;19.30;99.90
314;DHT22;143;51.634;7.112;2023-08-08T12:15:52;19.40;99.90
314;DHT22;143;51.634;7.112;2023-08-08T12:18:19;19.50;68.50
314;DHT22;143;51.634;7.112;2023-08-08T12:20:45;19.60;27.60
314;DHT22;143;51.634;7.112;2023-08-08T12:23:12;19.60;1.00
314;DHT22;143;51.634;7.112;2023-08-08T12:25:38;19.70;1.00
314;DHT22;143;51.634;7.112;2023-08-08T12:28:05;19.80;1.00
314;DHT22;143;51.634;7.112;2023-08-08T12:30:32;19.90;1.00
314;DHT22;143;51.634;7.112;2023-08-08T12:32:58;20.00;1.00
314;DHT22;143;51.634;7.112;2023-08-08T12:35:24;20.20;1.00
314;DHT22;143;51.634;7.112;2023-08-08T12:37:52;20.20;1.00
314;DHT22;143;51.634;7.112;2023-08-08T12:40:18;20.30;1.00
314;DHT22;143;51.634;7.112;2023-08-08T12:42:43;20.30;1.00
314;DHT22;143;51.634;7.112;2023-08-08T12:45:09;20.20;1.00
314;DHT22;143;51.634;7.112;2023-08-08T12:47:36;20.10;1.00
314;DHT22;143;51.634;7.112;2023-08-08T12:50:04;20.00;1.00
314;DHT22;143;51.634;7.112;2023-08-08T12:52:30;19.90;1.00
314;DHT22;143;51.634;7.112;2023-08-08T12:54:55;19.90;1.00
314;DHT22;143;51.634;7.112;2023-08-08T12:57:22;20.10;1.00
314;DHT22;143;51.634;7.112;2023-08-08T12:59:48;20.10;1.00
314;DHT22;143;51.634;7.112;2023-08-08T13:02:13;20.10;1.00
314;DHT22;143;51.634;7.112;2023-08-08T13:04:39;20.10;1.00
314;DHT22;143;51.634;7.112;2023-08-08T13:07:05;20.10;1.00
314;DHT22;143;51.634;7.112;2023-08-08T13:09:30;20.00;1.00
314;DHT22;143;51.634;7.112;2023-08-08T13:11:56;20.00;1.00
314;DHT22;143;51.634;7.112;2023-08-08T13:14:22;19.90;1.00
314;DHT22;143;51.634;7.112;2023-08-08T13:16:47;19.90;1.00
314;DHT22;143;51.634;7.112;2023-08-08T13:19:13;19.90;1.00
314;DHT22;143;51.634;7.112;2023-08-08T13:21:40;19.90;1.00
314;DHT22;143;51.634;7.112;2023-08-08T13:24:06;19.80;1.00
314;DHT22;143;51.634;7.112;2023-08-08T13:26:34;19.90;1.00
314;DHT22;143;51.634;7.112;2023-08-08T13:28:59;20.00;1.00
314;DHT22;143;51.634;7.112;2023-08-08T13:31:25;20.00;1.00
314;DHT22;143;51.634;7.112;2023-08-08T13:33:51;20.10;1.00
314;DHT22;143;51.634;7.112;2023-08-08T13:36:16;20.10;1.00
314;DHT22;143;51.634;7.112;2023-08-08T13:38:42;20.10;1.00
314;DHT22;143;51.634;7.112;2023-08-08T13:41:07;20.00;1.00
314;DHT22;143;51.634;7.112;2023-08-08T13:43:34;20.10;1.00
314;DHT22;143;51.634;7.112;2023-08-08T13:46:00;20.10;1.00
314;DHT22;143;51.634;7.112;2023-08-08T13:48:25;20.10;1.00
314;DHT22;143;51.634;7.112;2023-08-08T13:50:52;20.20;1.00
314;DHT22;143;51.634;7.112;2023-08-08T13:53:18;20.30;1.00
314;DHT22;143;51.634;7.112;2023-08-08T13:55:44;20.40;1.00
314;DHT22;143;51.634;7.112;2023-08-08T13:58:10;20.60;1.00
314;DHT22;143;51.634;7.112;2023-08-08T14:00:36;20.60;1.00
314;DHT22;143;51.634;7.112;2023-08-08T14:03:02;20.70;1.00
314;DHT22;143;51.634;7.112;2023-08-08T14:05:28;20.70;1.00
314;DHT22;143;51.634;7.112;2023-08-08T14:07:54;20.60;1.00
314;DHT22;143;51.634;7.112;2023-08-08T14:10:20;20.60;1.00
314;DHT22;143;51.634;7.112;2023-08-08T14:12:45;20.60;1.00
314;DHT22;143;51.634;7.112;2023-08-08T14:15:11;20.50;1.00
314;DHT22;143;51.634;7.112;2023-08-08T14:17:37;20.40;1.00
314;DHT22;143;51.634;7.112;2023-08-08T14:20:03;20.30;1.00
314;DHT22;143;51.634;7.112;2023-08-08T14:22:30;20.20;1.00
314;DHT22;143;51.634;7.112;2023-08-08T14:24:56;20.20;1.00
314;DHT22;143;51.634;7.112;2023-08-08T14:27:22;20.10;1.00
314;DHT22;143;51.634;7.112;2023-08-08T14:29:48;20.10;1.00
314;DHT22;143;51.634;7.112;2023-08-08T14:32:13;20.20;1.00
314;DHT22;143;51.634;7.112;2023-08-08T14:34:39;20.20;1.00
314;DHT22;143;51.634;7.112;2023-08-08T14:37:06;20.30;1.00
314;DHT22;143;51.634;7.112;2023-08-08T14:39:32;20.40;1.00
314;DHT22;143;51.634;7.112;2023-08-08T14:41:58;20.40;1.00
314;DHT22;143;51.634;7.112;2023-08-08T14:44:24;20.60;1.00
314;DHT22;143;51.634;7.112;2023-08-08T14:46:49;20.60;1.00
314;DHT22;143;51.634;7.112;2023-08-08T14:49:15;20.60;1.00
314;DHT22;143;51.634;7.112;2023-08-08T14:51:41;20.60;1.00
314;DHT22;143;51.634;7.112;2023-08-08T14:54:07;20.70;1.00
314;DHT22;143;51.634;7.112;2023-08-08T14:56:33;20.70;1.00
314;DHT22;143;51.634;7.112;2023-08-08T14:58:58;20.80;1.00
314;DHT22;143;51.634;7.112;2023-08-08T15:01:24;20.70;1.00
314;DHT22;143;51.634;7.112;2023-08-08T15:03:50;20.70;1.00
314;DHT22;143;51.634;7.112;2023-08-08T15:06:16;20.60;1.00
314;DHT22;143;51.634;7.112;2023-08-08T15:08:42;20.70;1.00
314;DHT22;143;51.634;7.112;2023-08-08T15:11:08;20.70;1.00
314;DHT22;143;51.634;7.112;2023-08-08T15:13:34;20.70;1.00
314;DHT22;143;51.634;7.112;2023-08-08T15:16:00;20.70;1.00
314;DHT22;143;51.634;7.112;2023-08-08T15:18:26;20.70;1.00
314;DHT22;143;51.634;7.112;2023-08-08T15:20:51;20.70;1.00
314;DHT22;143;51.634;7.112;2023-08-08T15:23:17;20.80;1.00
314;DHT22;143;51.634;7.112;2023-08-08T15:25:43;20.80;1.00
314;DHT22;143;51.634;7.112;2023-08-08T15:28:09;20.80;1.00
314;DHT22;143;51.634;7.112;2023-08-08T15:30:35;20.70;1.00
314;DHT22;143;51.634;7.112;2023-08-08T15:33:00;20.80;1.00
314;DHT22;143;51.634;7.112;2023-08-08T15:35:26;20.80;1.00
314;DHT22;143;51.634;7.112;2023-08-08T15:37:52;20.80;1.00
314;DHT22;143;51.634;7.112;2023-08-08T15:40:17;20.80;1.00
314;DHT22;143;51.634;7.112;2023-08-08T15:42:43;20.80;1.00
314;DHT22;143;51.634;7.112;2023-08-08T15:45:10;20.80;1.00
314;DHT22;143;51.634;7.112;2023-08-08T15:47:36;20.80;1.00
314;DHT22;143;51.634;7.112;2023-08-08T15:50:02;20.80;1.00
314;DHT22;143;51.634;7.112;2023-08-08T15:52:28;20.90;1.00
314;DHT22;143;51.634;7.112;2023-08-08T15:54:53;21.00;1.00
314;DHT22;143;51.634;7.112;2023-08-08T15:57:19;21.10;1.00
314;DHT22;143;51.634;7.112;2023-08-08T15:59:45;21.10;1.00
314;DHT22;143;51.634;7.112;2023-08-08T16:02:11;21.10;1.00
314;DHT22;143;51.634;7.112;2023-08-08T16:04:37;21.10;1.00
314;DHT22;143;51.634;7.112;2023-08-08T16:07:03;21.10;1.00
314;DHT22;143;51.634;7.112;2023-08-08T16:09:29;21.00;1.00
314;DHT22;143;51.634;7.112;2023-08-08T16:11:55;21.00;1.00
314;DHT22;143;51.634;7.112;2023-08-08T16:14:20;20.90;1.00
314;DHT22;143;51.634;7.112;2023-08-08T16:16:47;20.90;1.00
314;DHT22;143;51.634;7.112;2023-08-08T16:19:13;20.80;1.00
314;DHT22;143;51.634;7.112;2023-08-08T16:21:38;20.80;1.00
314;DHT22;143;51.634;7.112;2023-08-08T16:24:04;20.70;1.00
314;DHT22;143;51.634;7.112;2023-08-08T16:26:30;20.60;1.00
314;DHT22;143;51.634;7.112;2023-08-08T16:28:56;20.60;1.00
314;DHT22;143;51.634;7.112;2023-08-08T16:31:22;20.60;1.00
314;DHT22;143;51.634;7.112;2023-08-08T16:33:48;20.50;1.00
314;DHT22;143;51.634;7.112;2023-08-08T16:36:14;20.50;1.00
314;DHT22;143;51.634;7.112;2023-08-08T16:38:43;20.50;1.00
314;DHT22;143;51.634;7.112;2023-08-08T16:41:09;20.40;1.00
314;DHT22;143;51.634;7.112;2023-08-08T16:43:36;20.40;1.00
314;DHT22;143;51.634;7.112;2023-08-08T16:46:02;20.40;1.00